Huili, China
Current Conditions -  °F | °C
As of 2:00 AM on Saturday 20 Dec 2014 (Local Time) from ZPPP Reporting Station
Clear Clear  
Wind Chill: 26°   Ceiling: Unl
Heat Index: 32°   Visibility: 4mi
Dew Point: 32°   Wind: 7mph
Humidity: 100%   Direction: 220°SW
Pressure: 30.27"   Gusts: NA
Location:  26.65°N, 102.25°E
Report Text: ZPPP 191800Z 22003MPS 7000 NSC 00/00 Q1025 NOSIG
Loading
Personal Weather Stations






























Interactive Weather Map New forecast layout! Learn more

10-Day Weather Forecast

Advertisements
Track Severe Weather on mobile